Time;durP1;ratioP1;P1;durP2;ratioP2;P2;SDS_P1;SDS_P2;PMS_P1;PMS_P2;Temp;Humidity;BMP_temperature;BMP_pressure;BME280_temperature;BME280_humidity;BME280_pressure;Samples;Min_cycle;Max_cycle;Signal;HPM_P1;HPM_P2
2021/08/10 00:01:04;;;;;;;3.10;1.70;;;;;;;18.28;70.26;100604.06;4971855;28;20427;-82
2021/08/10 00:03:29;;;;;;;1.63;1.23;;;;;;;18.27;70.34;100607.94;4972381;28;20404;-82
2021/08/10 00:05:54;;;;;;;4.57;1.40;;;;;;;18.26;70.42;100601.63;4973074;28;20458;-82
2021/08/10 00:08:21;;;;;;;3.67;1.87;;;;;;;18.24;70.22;100597.56;4973010;28;20520;-81
2021/08/10 00:10:48;;;;;;;3.22;1.38;;;;;;;18.20;70.14;100593.75;4972838;28;20400;-82
2021/08/10 00:13:16;;;;;;;5.80;1.70;;;;;;;18.15;70.19;100598.19;4987706;28;20455;-81
2021/08/10 00:15:42;;;;;;;3.50;2.20;;;;;;;18.13;70.37;100594.91;4971090;28;20956;-81
2021/08/10 00:18:08;;;;;;;2.35;1.80;;;;;;;18.10;70.43;100601.00;4972728;28;20455;-81
2021/08/10 00:20:34;;;;;;;5.28;1.95;;;;;;;18.08;70.11;100597.69;4971235;28;20416;-82
2021/08/10 00:23:00;;;;;;;3.03;1.70;;;;;;;18.10;70.42;100592.75;4972312;28;20925;-82
2021/08/10 00:25:25;;;;;;;2.72;1.60;;;;;;;18.10;70.55;100592.75;4972325;28;20396;-82
2021/08/10 00:27:51;;;;;;;2.80;1.70;;;;;;;18.09;70.24;100593.88;4971344;28;20503;-81
2021/08/10 00:30:16;;;;;;;2.00;1.80;;;;;;;18.09;70.27;100595.78;4972138;28;20438;-81
2021/08/10 00:32:41;;;;;;;5.50;1.80;;;;;;;18.05;70.33;100600.22;4973012;28;20890;-82
2021/08/10 00:35:07;;;;;;;1.93;1.70;;;;;;;18.04;69.91;100593.13;4976210;28;20404;-81
2021/08/10 00:37:33;;;;;;;3.38;1.40;;;;;;;18.02;69.79;100592.56;4976191;28;20392;-81
2021/08/10 00:39:58;;;;;;;2.67;1.43;;;;;;;18.02;69.49;100598.06;4976452;28;20392;-82
2021/08/10 00:42:24;;;;;;;2.90;1.40;;;;;;;18.00;69.72;100594.78;4975237;28;20414;-81
2021/08/10 00:44:49;;;;;;;3.93;1.50;;;;;;;17.99;69.83;100602.19;4976275;28;20406;-82
2021/08/10 00:47:15;;;;;;;3.83;1.50;;;;;;;17.96;69.31;100599.22;4975843;28;20408;-81
2021/08/10 00:49:40;;;;;;;2.13;1.93;;;;;;;17.95;69.18;100597.56;4975810;28;20404;-82
2021/08/10 00:52:06;;;;;;;6.67;2.07;;;;;;;17.93;69.32;100597.88;4976009;28;20404;-81
2021/08/10 00:54:32;;;;;;;2.85;1.27;;;;;;;17.92;69.42;100596.22;4957308;28;20754;-81
2021/08/10 00:56:57;;;;;;;5.97;1.92;;;;;;;17.90;69.56;100589.41;4955616;29;20412;-81
2021/08/10 00:59:22;;;;;;;3.47;1.40;;;;;;;17.88;69.39;100588.91;4957096;29;20394;-81
2021/08/10 01:01:48;;;;;;;3.57;1.70;;;;;;;17.86;69.72;100582.88;4956076;29;20421;-81
2021/08/10 01:04:13;;;;;;;2.38;1.60;;;;;;;17.82;70.03;100590.03;4955623;29;20409;-81
2021/08/10 01:06:50;;;;;;;3.50;1.57;;;;;;;17.81;69.76;100586.50;4956157;29;20410;-82
2021/08/10 01:09:26;;;;;;;4.75;2.65;;;;;;;17.80;69.91;100586.78;4956748;28;20497;-81
2021/08/10 01:12:13;;;;;;;2.08;1.60;;;;;;;17.78;70.00;100578.03;4956469;28;20448;-81
2021/08/10 01:14:47;;;;;;;4.07;1.70;;;;;;;17.76;70.31;100575.56;4956127;29;20539;-81
2021/08/10 01:17:21;;;;;;;3.17;1.33;;;;;;;17.75;70.02;100576.66;4956344;29;20412;-81
2021/08/10 01:20:05;;;;;;;3.65;1.40;;;;;;;17.76;69.96;100572.00;4956016;28;20398;-81
2021/08/10 01:22:33;;;;;;;3.80;1.52;;;;;;;17.76;69.71;100574.75;4955461;29;20410;-81
2021/08/10 01:25:05;;;;;;;2.92;1.40;;;;;;;17.73;69.66;100578.06;4955104;29;20497;-81
2021/08/10 01:27:50;;;;;;;3.38;1.45;;;;;;;17.71;69.82;100572.06;4956438;29;20481;-81
2021/08/10 01:30:20;;;;;;;3.53;2.00;;;;;;;17.67;69.69;100569.09;4938785;29;20406;-81
2021/08/10 01:32:47;;;;;;;3.28;1.73;;;;;;;17.60;69.73;100571.34;4955730;29;20497;-81
2021/08/10 01:35:16;;;;;;;2.20;2.00;;;;;;;17.53;69.72;100568.09;4956434;29;20409;-81
2021/08/10 01:37:45;;;;;;;3.47;1.52;;;;;;;17.49;69.78;100570.56;4956236;29;20817;-81
2021/08/10 01:40:12;;;;;;;3.85;1.80;;;;;;;17.48;69.95;100559.94;4955766;29;20460;-81
2021/08/10 01:42:40;;;;;;;2.40;1.58;;;;;;;17.46;69.80;100560.19;4955750;28;20812;-81
2021/08/10 01:45:06;;;;;;;2.00;1.77;;;;;;;17.41;69.76;100563.00;4954530;28;20955;-81
2021/08/10 01:47:33;;;;;;;5.63;2.05;;;;;;;17.40;69.98;100558.63;4951799;28;20469;-81
2021/08/10 01:50:00;;;;;;;1.60;1.42;;;;;;;17.37;69.63;100563.84;4953023;29;20414;-81
2021/08/10 01:52:27;;;;;;;1.83;1.52;;;;;;;17.36;69.79;100560.28;4957580;28;20390;-81
2021/08/10 01:54:53;;;;;;;2.17;1.40;;;;;;;17.33;69.80;100566.34;4975099;28;20868;-81
2021/08/10 01:57:20;;;;;;;3.20;1.50;;;;;;;17.32;69.89;100572.13;4966358;28;20985;-81
2021/08/10 02:03:24;;;;;;;1.92;1.70;;;;;;;17.30;70.10;100558.69;4906811;29;20577;-80
2021/08/10 02:05:50;;;;;;;4.03;1.90;;;;;;;17.28;70.34;100562.84;4896950;29;21005;-81
2021/08/10 02:08:15;;;;;;;1.52;1.40;;;;;;;17.27;70.41;100570.22;4905401;29;20587;-81
2021/08/10 02:10:44;;;;;;;1.85;1.60;;;;;;;17.25;70.57;100566.97;4896482;29;20748;-82
2021/08/10 02:13:11;;;;;;;7.23;1.73;;;;;;;17.27;70.59;100572.16;4896106;29;20909;-81
2021/08/10 02:15:40;;;;;;;2.63;1.90;;;;;;;17.26;70.59;100565.03;4896759;29;20407;-81
2021/08/10 02:18:06;;;;;;;3.30;2.10;;;;;;;17.25;70.80;100566.16;4906431;29;20444;-81
2021/08/10 02:20:33;;;;;;;3.73;3.20;;;;;;;17.27;70.78;100563.94;4896555;29;20519;-81
2021/08/10 02:22:58;;;;;;;3.23;2.83;;;;;;;17.29;70.38;100559.78;4896288;29;21042;-81
2021/08/10 02:25:27;;;;;;;10.10;5.50;;;;;;;17.26;70.42;100557.63;4896315;29;20391;-81
2021/08/10 02:27:55;;;;;;;45.77;23.37;;;;;;;17.27;70.69;100556.53;4905106;29;20418;-81
2021/08/10 02:30:26;;;;;;;51.40;27.47;;;;;;;17.27;70.59;100552.97;4913909;29;20534;-81
2021/08/10 02:32:53;;;;;;;31.90;18.92;;;;;;;17.28;70.73;100549.97;4911392;29;20434;-81
2021/08/10 02:35:22;;;;;;;10.10;5.35;;;;;;;17.27;70.40;100551.06;4954925;28;20405;-81
2021/08/10 02:37:48;;;;;;;4.78;2.45;;;;;;;17.28;70.49;100552.69;4954511;28;20911;-81
2021/08/10 02:40:17;;;;;;;3.55;2.60;;;;;;;17.25;70.23;100556.03;4955065;29;20402;-81
2021/08/10 02:42:52;;;;;;;6.25;3.50;;;;;;;17.22;70.25;100548.38;4954699;29;20946;-81
2021/08/10 02:45:18;;;;;;;8.85;4.90;;;;;;;17.20;70.38;100552.47;4954979;29;20413;-81
2021/08/10 02:47:50;;;;;;;21.90;10.18;;;;;;;17.16;70.02;100546.75;4957627;28;20408;-81
2021/08/10 02:50:16;;;;;;;15.20;8.52;;;;;;;17.11;69.94;100536.69;4955079;29;20401;-81
2021/08/10 02:52:42;;;;;;;5.95;3.05;;;;;;;17.10;69.79;100543.25;4962695;28;20424;-81
2021/08/10 02:55:07;;;;;;;4.27;2.20;;;;;;;17.08;69.58;100536.44;4965230;28;20947;-82
2021/08/10 02:57:47;;;;;;;5.07;2.40;;;;;;;17.07;69.76;100552.03;4937280;29;20410;-82
2021/08/10 03:00:14;;;;;;;2.10;1.90;;;;;;;17.04;69.81;100555.34;4954856;29;20390;-81
2021/08/10 03:02:46;;;;;;;7.28;1.70;;;;;;;17.02;70.05;100548.53;4953722;28;20413;-81
2021/08/10 03:05:14;;;;;;;1.85;1.50;;;;;;;17.01;69.98;100553.19;4954593;29;20402;-81
2021/08/10 03:07:44;;;;;;;5.43;1.63;;;;;;;16.96;69.86;100553.19;4954181;29;20413;-82
2021/08/10 03:10:11;;;;;;;2.17;1.50;;;;;;;16.96;69.62;100560.59;4957175;28;20907;-81
2021/08/10 03:12:42;;;;;;;3.78;1.60;;;;;;;16.90;69.75;100564.47;4953954;28;20863;-81
2021/08/10 03:15:08;;;;;;;2.33;1.70;;;;;;;16.84;70.02;100560.97;4954008;29;20489;-82
2021/08/10 03:17:38;;;;;;;2.97;2.03;;;;;;;16.84;69.84;100557.41;4953855;29;20498;-81
2021/08/10 03:20:06;;;;;;;2.00;1.48;;;;;;;16.82;70.29;100568.66;4954276;29;20469;-81
2021/08/10 03:22:33;;;;;;;3.15;1.73;;;;;;;16.77;70.23;100571.41;4959205;28;20765;-81
2021/08/10 03:24:59;;;;;;;1.63;1.50;;;;;;;16.80;70.20;100570.84;4937061;29;20889;-81
2021/08/10 03:27:26;;;;;;;3.08;2.00;;;;;;;16.81;69.97;100577.13;4954481;29;20753;-82
2021/08/10 03:29:53;;;;;;;2.78;1.67;;;;;;;16.83;70.10;100570.25;4953734;29;20469;-82
2021/08/10 03:32:19;;;;;;;4.82;1.85;;;;;;;16.91;70.01;100579.81;4954003;29;20414;-82
2021/08/10 03:34:46;;;;;;;5.20;2.60;;;;;;;16.92;69.88;100581.44;4962647;28;20931;-82
2021/08/10 03:37:14;;;;;;;4.03;1.70;;;;;;;16.96;69.70;100582.50;4953821;29;20777;-81
2021/08/10 03:39:39;;;;;;;3.10;1.70;;;;;;;16.96;69.60;100582.50;4953389;28;20408;-81
2021/08/10 03:42:07;;;;;;;2.63;1.63;;;;;;;16.94;69.78;100582.78;4953679;29;20504;-81
2021/08/10 03:44:34;;;;;;;3.43;1.80;;;;;;;16.87;69.76;100581.47;4953588;29;20406;-82
2021/08/10 03:46:59;;;;;;;4.68;3.30;;;;;;;16.83;69.86;100577.66;4953731;29;20773;-81
2021/08/10 03:49:25;;;;;;;4.38;3.30;;;;;;;16.86;70.33;100580.66;4959799;28;20439;-81
2021/08/10 03:51:51;;;;;;;5.63;2.80;;;;;;;16.92;70.36;100581.44;4952175;29;20772;-82
2021/08/10 03:54:17;;;;;;;4.28;2.90;;;;;;;16.94;70.22;100579.22;4954208;28;20505;-81
2021/08/10 03:56:46;;;;;;;4.77;2.93;;;;;;;16.96;70.05;100577.03;4953086;28;20806;-82
2021/08/10 03:59:15;;;;;;;7.78;3.85;;;;;;;16.96;70.06;100574.28;4953286;29;20472;-82
2021/08/10 04:01:41;;;;;;;5.07;2.83;;;;;;;16.95;70.27;100572.66;4942282;29;20429;-82
2021/08/10 04:04:08;;;;;;;2.25;1.92;;;;;;;16.93;70.38;100572.94;4953271;29;20432;-82
2021/08/10 04:06:37;;;;;;;3.90;2.22;;;;;;;16.94;70.29;100568.28;4953185;28;20494;-82
2021/08/10 04:09:03;;;;;;;6.03;2.60;;;;;;;16.96;70.32;100574.28;4953018;29;20414;-81
2021/08/10 04:11:29;;;;;;;6.55;2.10;;;;;;;16.97;70.22;100571.28;4951169;28;20432;-82
2021/08/10 04:13:54;;;;;;;6.97;2.55;;;;;;;16.99;70.48;100577.28;4936565;29;20487;-81
2021/08/10 04:16:21;;;;;;;2.23;1.80;;;;;;;17.01;70.17;100572.34;4952746;28;20919;-81
2021/08/10 04:18:48;;;;;;;2.05;1.92;;;;;;;17.01;70.03;100575.09;4952998;29;20402;-82
2021/08/10 04:21:16;;;;;;;5.50;1.80;;;;;;;17.01;70.78;100585.22;4953009;29;20414;-82
2021/08/10 04:23:42;;;;;;;3.53;1.80;;;;;;;17.00;70.08;100589.03;4953409;29;20885;-81
2021/08/10 04:26:07;;;;;;;5.27;2.37;;;;;;;17.03;69.71;100593.94;4953062;29;20406;-81
2021/08/10 04:28:32;;;;;;;5.82;1.55;;;;;;;17.01;69.47;100596.16;4952776;29;20900;-82
2021/08/10 04:30:58;;;;;;;5.20;2.17;;;;;;;16.94;69.77;100598.41;4953382;28;20485;-82
2021/08/10 04:33:23;;;;;;;3.90;1.90;;;;;;;16.89;69.85;100599.22;4951401;29;20436;-82
2021/08/10 04:35:48;;;;;;;6.23;1.80;;;;;;;16.89;70.16;100604.72;4952509;29;20523;-82
2021/08/10 04:38:13;;;;;;;4.57;1.73;;;;;;;16.89;70.22;100609.41;4952730;29;20405;-81
2021/08/10 04:40:39;;;;;;;2.47;1.63;;;;;;;16.89;70.18;100606.66;4951858;29;20481;-81
2021/08/10 04:43:07;;;;;;;4.50;1.80;;;;;;;16.88;70.14;100616.78;4951319;28;20416;-81
2021/08/10 04:45:32;;;;;;;3.28;2.05;;;;;;;16.88;70.40;100619.53;4951091;28;20433;-81
2021/08/10 04:47:58;;;;;;;2.58;1.67;;;;;;;16.89;70.39;100623.09;4952874;28;20452;-81
2021/08/10 04:50:23;;;;;;;2.67;1.50;;;;;;;16.89;70.22;100623.88;4952876;29;20405;-82
2021/08/10 04:52:49;;;;;;;4.25;1.73;;;;;;;16.88;70.41;100625.00;4957529;28;20412;-81
2021/08/10 04:55:14;;;;;;;4.77;1.80;;;;;;;16.89;70.65;100621.13;4972441;28;20404;-82
2021/08/10 04:57:39;;;;;;;3.73;1.67;;;;;;;16.96;70.40;100616.16;4972120;28;20410;-82
2021/08/10 05:00:06;;;;;;;2.97;1.80;;;;;;;17.06;70.31;100626.25;4971555;28;20491;-82
2021/08/10 05:02:31;;;;;;;4.07;2.03;;;;;;;17.13;70.06;100626.75;4974402;28;20497;-82
2021/08/10 05:04:57;;;;;;;5.70;2.70;;;;;;;17.16;70.10;100628.91;4971185;28;20499;-81
2021/08/10 05:07:22;;;;;;;3.10;2.20;;;;;;;17.20;70.12;100635.47;4972365;28;20439;-82
2021/08/10 05:09:47;;;;;;;3.25;1.92;;;;;;;17.26;69.51;100631.59;4972090;28;20396;-82
2021/08/10 05:12:13;;;;;;;6.90;1.87;;;;;;;17.31;69.53;100631.56;4971853;28;20495;-82
2021/08/10 05:14:38;;;;;;;6.07;2.42;;;;;;;17.39;70.24;100636.41;4971113;28;20408;-82
2021/08/10 05:17:04;;;;;;;3.10;1.83;;;;;;;17.44;70.26;100632.84;4971358;28;20404;-81
2021/08/10 05:19:29;;;;;;;3.03;2.80;;;;;;;17.52;70.41;100637.69;4972245;28;20415;-82
2021/08/10 05:21:55;;;;;;;5.80;2.10;;;;;;;17.54;70.52;100638.22;4972130;28;20907;-82
2021/08/10 05:24:20;;;;;;;8.02;2.40;;;;;;;17.58;70.35;100636.59;4984716;28;20553;-82
2021/08/10 05:26:45;;;;;;;5.40;2.10;;;;;;;17.60;69.83;100632.47;4975308;28;20432;-82
2021/08/10 05:29:10;;;;;;;4.40;2.03;;;;;;;17.66;69.63;100635.13;4975553;28;20419;-82
2021/08/10 05:31:36;;;;;;;4.63;2.07;;;;;;;17.69;69.93;100637.31;4975230;28;20412;-82
2021/08/10 05:34:01;;;;;;;3.73;1.87;;;;;;;17.73;69.96;100641.13;4974731;28;20411;-83
2021/08/10 05:36:26;;;;;;;4.47;2.07;;;;;;;17.75;69.89;100642.44;4989399;28;20408;-83
2021/08/10 05:38:54;;;;;;;4.15;2.00;;;;;;;17.78;70.22;100638.34;4975071;28;20933;-82
2021/08/10 05:41:22;;;;;;;4.95;2.03;;;;;;;17.77;69.76;100634.78;4974789;28;20526;-84
2021/08/10 05:43:48;;;;;;;3.25;2.25;;;;;;;17.77;70.16;100636.69;4975199;28;20411;-83
2021/08/10 05:46:13;;;;;;;4.30;2.33;;;;;;;17.79;70.89;100638.03;4969510;28;20896;-82
2021/08/10 05:48:39;;;;;;;6.60;2.30;;;;;;;17.84;70.56;100640.75;4973471;28;20408;-82
2021/08/10 05:51:05;;;;;;;5.37;2.30;;;;;;;17.88;70.02;100630.03;4974997;28;20816;-81
2021/08/10 05:53:34;;;;;;;4.60;2.38;;;;;;;17.91;70.03;100634.94;4974353;28;20424;-82
2021/08/10 05:56:00;;;;;;;4.60;2.97;;;;;;;17.99;69.73;100632.38;4970202;28;20871;-83
2021/08/10 05:58:25;;;;;;;3.07;2.10;;;;;;;18.02;69.19;100625.47;4971109;28;20471;-82
2021/08/10 06:00:51;;;;;;;7.57;2.43;;;;;;;18.08;69.06;100635.28;4973402;28;20771;-82
2021/08/10 06:03:16;;;;;;;3.97;2.73;;;;;;;18.11;68.62;100634.72;4974274;28;20408;-82
2021/08/10 06:05:42;;;;;;;4.23;2.13;;;;;;;18.13;68.79;100641.53;4977298;28;20506;-82
2021/08/10 06:08:07;;;;;;;4.57;2.87;;;;;;;18.19;68.38;100638.75;4974809;28;20411;-83
2021/08/10 06:10:33;;;;;;;2.77;2.50;;;;;;;18.23;69.04;100634.31;4988832;28;20958;-82
2021/08/10 06:12:58;;;;;;;7.27;2.03;;;;;;;18.27;69.05;100625.22;4974701;28;20417;-82
2021/08/10 06:15:24;;;;;;;4.32;2.70;;;;;;;18.29;68.98;100620.25;4979480;28;20395;-81
2021/08/10 06:17:49;;;;;;;6.33;2.57;;;;;;;18.26;69.10;100615.34;4976529;28;20404;-83
2021/08/10 06:20:15;;;;;;;2.97;1.85;;;;;;;18.29;69.28;100606.53;4988934;28;20926;-83
2021/08/10 06:22:41;;;;;;;4.65;2.60;;;;;;;18.34;69.35;100609.19;4973887;28;20396;-83
2021/08/10 06:25:06;;;;;;;3.40;2.00;;;;;;;18.35;69.13;100599.88;4973903;28;21002;-82
2021/08/10 06:27:32;;;;;;;4.60;2.25;;;;;;;18.36;69.27;100600.69;4980478;28;20408;-83
2021/08/10 06:29:57;;;;;;;3.93;2.40;;;;;;;18.44;69.26;100602.81;4981938;28;20513;-81
2021/08/10 06:32:22;;;;;;;3.87;2.50;;;;;;;18.43;68.97;100603.91;4976083;28;20412;-83
2021/08/10 06:34:58;;;;;;;4.97;3.40;;;;;;;18.43;69.31;100601.97;4973519;28;20487;-82
2021/08/10 06:37:24;;;;;;;5.00;2.15;;;;;;;18.45;69.35;100597.00;4971683;28;20984;-82
2021/08/10 06:39:49;;;;;;;5.83;2.33;;;;;;;18.49;69.18;100594.50;4985062;28;20440;-82
2021/08/10 06:42:20;;;;;;;3.50;1.90;;;;;;;18.55;68.72;100604.31;4973336;28;20507;-82
2021/08/10 06:44:46;;;;;;;2.05;1.75;;;;;;;18.56;67.53;100592.25;4973609;28;20400;-83
2021/08/10 06:47:12;;;;;;;4.45;2.05;;;;;;;18.58;66.76;100587.25;4973044;28;20419;-82
2021/08/10 06:49:38;;;;;;;4.07;2.20;;;;;;;18.59;67.30;100589.72;4983496;28;20761;-82
2021/08/10 06:52:05;;;;;;;3.60;1.70;;;;;;;18.63;67.18;100588.03;4976827;28;20395;-82
2021/08/10 06:54:30;;;;;;;4.93;1.88;;;;;;;18.70;67.28;100584.91;4971845;28;20767;-82
2021/08/10 06:56:55;;;;;;;5.13;1.80;;;;;;;18.76;66.97;100586.47;4979635;28;20453;-82
2021/08/10 06:59:21;;;;;;;5.87;2.10;;;;;;;18.87;66.93;100582.47;4977754;28;20759;-82
2021/08/10 07:01:46;;;;;;;8.80;2.53;;;;;;;18.86;66.38;100569.03;4972584;28;20454;-82
2021/08/10 07:04:11;;;;;;;4.23;1.60;;;;;;;18.84;66.32;100565.75;4972505;28;20416;-82
2021/08/10 07:06:37;;;;;;;3.20;2.00;;;;;;;18.84;66.76;100574.00;4973302;28;20408;-82
2021/08/10 07:09:05;;;;;;;2.63;1.42;;;;;;;18.87;66.38;100571.47;4984706;28;20406;-81
2021/08/10 07:11:31;;;;;;;2.83;1.80;;;;;;;18.95;65.79;100578.22;4991500;28;20402;-82
2021/08/10 07:13:56;;;;;;;6.38;1.77;;;;;;;19.05;65.91;100569.84;4971192;28;20942;-80
2021/08/10 07:16:22;;;;;;;3.23;1.63;;;;;;;19.08;65.49;100563.75;4973713;28;20447;-83
2021/08/10 07:18:47;;;;;;;6.03;1.90;;;;;;;19.20;65.20;100569.59;4975835;28;20494;-83
2021/08/10 07:21:12;;;;;;;4.50;1.73;;;;;;;19.35;65.53;100560.28;4968818;28;20427;-82
2021/08/10 07:23:37;;;;;;;1.93;1.50;;;;;;;19.44;65.36;100556.59;4973122;28;20969;-82
2021/08/10 07:26:03;;;;;;;1.73;1.60;;;;;;;19.48;64.21;100554.06;4987822;28;20412;-79
2021/08/10 07:28:28;;;;;;;1.80;1.50;;;;;;;19.40;63.18;100550.06;4974628;28;20423;-84
2021/08/10 07:30:53;;;;;;;3.10;1.60;;;;;;;19.43;63.74;100549.44;4972343;28;20416;-83
2021/08/10 07:33:18;;;;;;;4.13;1.80;;;;;;;19.53;63.32;100554.78;4972458;28;20466;-82
2021/08/10 07:35:44;;;;;;;4.27;1.50;;;;;;;19.59;63.91;100558.28;4972791;28;20407;-80
2021/08/10 07:38:09;;;;;;;4.25;1.58;;;;;;;19.52;64.34;100563.34;4977278;28;20410;-80
2021/08/10 07:40:34;;;;;;;2.00;1.53;;;;;;;19.51;63.72;100561.69;4975497;28;20462;-81
2021/08/10 07:43:00;;;;;;;2.17;1.60;;;;;;;19.52;64.80;100568.84;4971373;28;20796;-81
2021/08/10 07:45:25;;;;;;;2.27;1.70;;;;;;;19.59;65.32;100577.50;4973013;28;20397;-84
2021/08/10 07:47:50;;;;;;;3.53;1.50;;;;;;;19.58;65.37;100570.38;4989555;28;20426;-83
2021/08/10 07:50:19;;;;;;;1.77;1.50;;;;;;;19.60;64.84;100570.88;4991172;28;20406;-85
2021/08/10 07:52:47;;;;;;;4.30;1.90;;;;;;;19.64;65.36;100572.72;4971725;28;20416;-86
2021/08/10 07:55:12;;;;;;;2.90;1.50;;;;;;;19.72;65.62;100579.47;4972115;28;20397;-84
2021/08/10 07:57:40;;;;;;;1.80;1.60;;;;;;;19.66;65.89;100580.66;4972557;28;20459;-87
2021/08/10 08:00:06;;;;;;;4.38;1.60;;;;;;;19.68;65.95;100582.00;4973001;28;20435;-83
2021/08/10 08:02:31;;;;;;;2.92;1.63;;;;;;;19.67;66.44;100588.63;4972473;28;20420;-84
2021/08/10 08:04:57;;;;;;;3.77;1.60;;;;;;;19.73;65.90;100577.53;4972908;28;20400;-85
2021/08/10 08:07:22;;;;;;;3.10;1.50;;;;;;;19.82;66.20;100586.72;4971191;28;20409;-81
2021/08/10 08:09:47;;;;;;;3.10;1.90;;;;;;;19.95;65.65;100583.19;4968744;28;20409;-82
2021/08/10 08:12:12;;;;;;;6.20;2.50;;;;;;;20.06;66.02;100590.09;4968445;28;20419;-82
2021/08/10 08:14:38;;;;;;;2.13;1.90;;;;;;;20.13;65.30;100596.03;4972561;28;20478;-85
2021/08/10 08:17:03;;;;;;;2.70;1.90;;;;;;;20.08;64.70;100596.94;4975852;28;20820;-84
2021/08/10 08:19:29;;;;;;;3.07;1.80;;;;;;;20.16;64.46;100589.91;4992269;28;20761;-84
2021/08/10 08:21:55;;;;;;;2.05;1.42;;;;;;;20.22;63.34;100591.44;4975228;28;20493;-85
2021/08/10 08:24:20;;;;;;;3.35;1.77;;;;;;;20.21;64.07;100598.06;4971231;28;20752;-84
2021/08/10 08:26:45;;;;;;;2.83;2.00;;;;;;;20.31;64.30;100591.59;4970688;28;20539;-83
2021/08/10 08:29:19;;;;;;;2.83;1.17;;;;;;;20.42;63.93;100593.81;4971509;28;20415;-81
2021/08/10 08:31:44;;;;;;;1.80;1.50;;;;;;;20.42;62.83;100588.28;4963812;28;20408;-83
2021/08/10 08:34:10;;;;;;;7.00;1.53;;;;;;;20.46;62.86;100589.31;4970811;28;20439;-84
2021/08/10 08:36:35;;;;;;;2.63;1.20;;;;;;;20.61;62.08;100582.69;4982011;28;20412;-84
2021/08/10 08:39:00;;;;;;;3.50;1.63;;;;;;;20.68;61.21;100589.38;4966663;28;20420;-84
2021/08/10 08:41:26;;;;;;;2.87;1.50;;;;;;;20.88;59.60;100588.13;4967317;28;20416;-83
2021/08/10 08:43:51;;;;;;;1.23;1.20;;;;;;;21.07;60.28;100587.97;4981532;28;20412;-83
2021/08/10 08:46:16;;;;;;;2.60;1.20;;;;;;;21.17;59.71;100590.53;4967552;28;20515;-83
2021/08/10 08:48:44;;;;;;;2.73;1.43;;;;;;;21.20;59.45;100592.66;4971095;28;20405;-83
2021/08/10 08:51:11;;;;;;;4.63;1.27;;;;;;;21.32;60.06;100590.16;4972067;28;20418;-84
2021/08/10 08:53:42;;;;;;;3.53;1.40;;;;;;;21.34;59.07;100592.59;4973016;28;20955;-84
2021/08/10 08:56:07;;;;;;;1.15;0.93;;;;;;;21.33;57.84;100588.22;4972578;28;20408;-84
2021/08/10 08:58:33;;;;;;;1.20;1.10;;;;;;;21.39;57.89;100590.53;4981793;28;20483;-84
2021/08/10 09:00:58;;;;;;;3.40;1.65;;;;;;;21.50;56.29;100593.84;4994608;28;20415;-85
2021/08/10 09:03:23;;;;;;;1.73;1.40;;;;;;;21.59;56.78;100589.22;4973309;28;20400;-84
2021/08/10 09:05:49;;;;;;;2.57;1.53;;;;;;;21.82;56.99;100585.28;4981150;28;20406;-84
2021/08/10 09:08:34;;;;;;;2.50;1.20;;;;;;;21.91;54.54;100593.63;4978710;28;20425;-84
2021/08/10 09:11:02;;;;;;;2.30;0.93;;;;;;;21.97;55.64;100595.94;4970487;28;20470;-82
2021/08/10 09:13:28;;;;;;;2.15;0.98;;;;;;;22.12;53.68;100597.47;4978131;28;20418;-83
2021/08/10 09:16:06;;;;;;;2.90;1.00;;;;;;;22.20;52.92;100597.50;4978366;28;20462;-82
2021/08/10 09:18:36;;;;;;;2.83;1.20;;;;;;;22.35;53.21;100589.94;4973899;28;20412;-84
2021/08/10 09:21:06;;;;;;;1.53;1.10;;;;;;;22.47;53.13;100592.88;4978591;28;20510;-83
2021/08/10 09:23:47;;;;;;;2.60;1.00;;;;;;;22.61;53.84;100586.09;4979846;28;20438;-81
2021/08/10 09:26:39;;;;;;;1.73;0.93;;;;;;;22.81;53.90;100587.47;4975468;28;20396;-83
2021/08/10 09:29:04;;;;;;;1.83;1.23;;;;;;;22.82;53.55;100588.28;4972051;28;20412;-82
2021/08/10 09:31:40;;;;;;;1.30;1.17;;;;;;;22.84;53.33;100588.75;4975303;28;20411;-81
2021/08/10 09:34:18;;;;;;;4.53;1.20;;;;;;;23.07;52.75;100593.84;4974455;28;20416;-83
2021/08/10 09:36:47;;;;;;;3.40;1.10;;;;;;;23.34;51.75;100592.69;4971003;28;20459;-83
2021/08/10 09:39:12;;;;;;;1.80;1.27;;;;;;;23.43;50.66;100595.47;4970169;28;20402;-81
2021/08/10 09:41:39;;;;;;;2.17;1.20;;;;;;;23.34;51.42;100602.94;4981457;28;20794;-83
2021/08/10 09:44:18;;;;;;;4.50;1.17;;;;;;;23.49;51.24;100600.50;4975223;28;21042;-83
2021/08/10 09:46:49;;;;;;;2.90;0.88;;;;;;;24.02;50.20;100605.59;4974308;28;20883;-83
2021/08/10 09:49:15;;;;;;;1.80;1.00;;;;;;;24.29;48.83;100604.38;4973093;28;20902;-83
2021/08/10 09:51:42;;;;;;;1.90;1.30;;;;;;;24.37;48.42;100599.94;4961657;28;20410;-83
2021/08/10 09:54:11;;;;;;;1.50;1.10;;;;;;;24.56;48.66;100598.38;4977416;28;20538;-83
2021/08/10 09:57:03;;;;;;;3.78;1.20;;;;;;;24.78;48.11;100595.28;4982317;28;20416;-84
2021/08/10 09:59:42;;;;;;;2.42;1.23;;;;;;;25.16;46.68;100605.50;4967949;28;20425;-82
2021/08/10 10:02:22;;;;;;;2.67;1.25;;;;;;;25.48;45.40;100601.13;4964545;28;20479;-83
2021/08/10 10:04:55;;;;;;;2.47;1.10;;;;;;;25.39;45.96;100601.19;4993863;28;20901;-83
2021/08/10 10:07:22;;;;;;;1.70;1.03;;;;;;;25.35;46.63;100599.44;4975145;28;20443;-83
2021/08/10 10:09:47;;;;;;;1.00;0.73;;;;;;;25.50;46.08;100601.63;4974256;28;20400;-83
2021/08/10 10:12:14;;;;;;;3.70;1.30;;;;;;;25.54;46.13;100602.56;4971106;28;20980;-82
2021/08/10 10:14:40;;;;;;;1.80;0.80;;;;;;;25.89;43.61;100597.44;4965247;28;20400;-85
2021/08/10 10:17:10;;;;;;;2.00;1.17;;;;;;;26.32;43.18;100608.88;4974649;28;20408;-85
2021/08/10 10:19:40;;;;;;;2.90;1.33;;;;;;;26.72;42.04;100600.66;4974275;28;20407;-84
2021/08/10 10:22:17;;;;;;;4.85;1.10;;;;;;;26.94;42.21;100602.16;4971276;28;20527;-81
2021/08/10 10:24:54;;;;;;;2.83;1.33;;;;;;;27.41;42.22;100589.25;4969255;28;20447;-84
2021/08/10 10:27:20;;;;;;;5.32;1.50;;;;;;;27.66;42.94;100604.69;4965219;28;20954;-85
2021/08/10 10:29:54;;;;;;;1.98;0.95;;;;;;;28.28;40.96;100606.78;4973902;28;20476;-85
2021/08/10 10:32:23;;;;;;;2.95;1.10;;;;;;;28.64;39.22;100610.44;4973747;28;20961;-85
2021/08/10 10:34:49;;;;;;;4.05;1.13;;;;;;;29.34;39.35;100619.66;4980690;28;20435;-83
2021/08/10 10:37:23;;;;;;;3.15;1.20;;;;;;;29.51;37.85;100616.38;4973669;28;20408;-87
2021/08/10 10:39:55;;;;;;;3.05;1.10;;;;;;;29.25;39.38;100611.47;4974282;28;20435;-85
2021/08/10 10:42:21;;;;;;;3.33;1.37;;;;;;;28.48;41.12;100610.47;4974708;28;20929;-85
2021/08/10 10:44:51;;;;;;;4.35;1.20;;;;;;;28.47;40.67;100608.03;4971161;28;20419;-85
2021/08/10 10:47:19;;;;;;;5.25;1.20;;;;;;;28.55;41.14;100610.59;4970707;28;20416;-84
2021/08/10 10:49:45;;;;;;;3.30;1.27;;;;;;;28.66;39.01;100616.47;4970427;28;20914;-86
2021/08/10 10:52:10;;;;;;;3.17;1.30;;;;;;;28.56;38.63;100605.84;4974166;28;20400;-85
2021/08/10 10:54:44;;;;;;;2.33;1.10;;;;;;;28.11;41.62;100612.72;4978240;28;20807;-84
2021/08/10 10:57:32;;;;;;;3.03;1.30;;;;;;;27.69;41.95;100608.75;4974600;28;20479;-86
2021/08/10 11:00:03;;;;;;;1.75;1.25;;;;;;;27.13;43.33;100608.72;4983440;28;20407;-85
2021/08/10 11:02:28;;;;;;;3.65;1.20;;;;;;;26.91;44.08;100612.00;4975452;28;20420;-85
2021/08/10 11:05:06;;;;;;;3.20;1.33;;;;;;;26.67;43.99;100610.06;4993325;28;20553;-84
2021/08/10 11:07:56;;;;;;;1.23;1.10;;;;;;;26.69;44.08;100612.47;4989677;28;20423;-86
2021/08/10 11:10:38;;;;;;;4.07;1.67;;;;;;;26.71;45.17;100610.97;4956154;28;20409;-87
2021/08/10 11:13:25;;;;;;;3.80;1.48;;;;;;;26.73;45.50;100605.88;4979772;28;20421;-86
2021/08/10 11:15:50;;;;;;;6.07;1.60;;;;;;;26.93;45.07;100606.91;4959536;28;20418;-86
2021/08/10 11:18:15;;;;;;;2.33;1.20;;;;;;;26.89;44.79;100602.41;4958445;28;20393;-85
2021/08/10 11:20:43;;;;;;;2.20;1.10;;;;;;;26.88;44.60;100604.38;4970189;28;20969;-87
2021/08/10 11:23:19;;;;;;;1.50;1.10;;;;;;;26.92;42.37;100598.91;4972272;28;21045;-86
2021/08/10 11:25:45;;;;;;;1.40;1.10;;;;;;;26.57;44.34;100604.97;4969183;28;20419;-83
2021/08/10 11:28:28;;;;;;;4.78;1.30;;;;;;;26.06;46.06;100602.81;4965126;28;20489;-87
2021/08/10 11:30:56;;;;;;;3.47;1.23;;;;;;;25.92;45.99;100594.78;4970793;28;20404;-83